Troizk, Russia
Current Conditions -  °F | °C
As of 12:00 AM on Saturday 20 Dec 2014 (Local Time) from USCC Reporting Station
Overcast Overcast  
Wind Chill: 19°   Ceiling: 7000
Heat Index: 27°   Visibility: 6mi
Dew Point: 16°   Wind: 7mph
Humidity: 64%   Direction: 160°SSE
Pressure: 30"   Gusts: NA
Location:  54.08°N, 61.62°E
Report Text: USCC 191800Z 16003MPS 9999 SCT040 OVC070 M03/M09 Q1016 09000060NOSIG RMK QFE741
Loading
Personal Weather Stations






























Interactive Weather Map New forecast layout! Learn more

10-Day Weather Forecast

Advertisements
Track Severe Weather on mobile